Time;durP1;ratioP1;P1;durP2;ratioP2;P2;SDS_P1;SDS_P2;PMS_P1;PMS_P2;Temp;Humidity;BMP_temperature;BMP_pressure;BME280_temperature;BME280_humidity;BME280_pressure;Samples;Min_cycle;Max_cycle;Signal;HPM_P1;HPM_P2
2022/10/17 00:02:22;;;;;;;8.48;2.80;;;14.20;99.90;;;;;;6267057;28;20109;-83
2022/10/17 00:05:53;;;;;;;28.02;5.97;;;14.10;99.90;;;;;;6161802;28;20047;-84
2022/10/17 00:08:57;;;;;;;12.57;3.33;;;14.00;99.90;;;;;;6237965;28;20127;-84
2022/10/17 00:12:45;;;;;;;8.48;2.60;;;14.40;99.90;;;;;;6254470;28;20053;-84
2022/10/17 00:23:29;;;;;;;8.88;3.33;;;14.40;99.90;;;;;;6196408;28;20622;-84
2022/10/17 00:26:33;;;;;;;9.93;2.28;;;14.00;99.90;;;;;;6277689;28;20127;-83
2022/10/17 00:29:48;;;;;;;9.88;2.58;;;14.00;99.90;;;;;;6266584;28;20045;-84
2022/10/17 00:32:50;;;;;;;9.43;3.10;;;13.90;99.90;;;;;;6277184;28;20068;-84
2022/10/17 00:35:52;;;;;;;10.55;2.50;;;13.90;99.90;;;;;;6277810;28;20059;-84
2022/10/17 00:38:57;;;;;;;13.27;3.70;;;13.90;99.90;;;;;;6276426;28;20049;-84
2022/10/17 00:41:59;;;;;;;15.82;3.25;;;13.90;99.90;;;;;;6270918;28;20053;-84
2022/10/17 00:45:07;;;;;;;5.18;2.50;;;13.90;99.90;;;;;;6251028;28;20042;-84
2022/10/17 00:48:11;;;;;;;20.38;4.45;;;13.80;99.90;;;;;;6251409;28;20049;-84
2022/10/17 00:51:12;;;;;;;23.58;3.92;;;13.80;99.90;;;;;;6251050;28;20045;-83
2022/10/17 00:54:18;;;;;;;23.90;3.22;;;13.80;99.90;;;;;;6251427;28;20045;-83
2022/10/17 00:57:20;;;;;;;22.67;7.20;;;13.70;99.90;;;;;;6254293;28;20060;-84
2022/10/17 01:00:23;;;;;;;8.68;2.38;;;13.70;99.90;;;;;;6252505;28;20540;-83
2022/10/17 01:03:25;;;;;;;12.32;3.78;;;13.70;99.90;;;;;;6205614;22;20508;-83
2022/10/17 01:06:27;;;;;;;16.05;3.35;;;13.70;99.90;;;;;;6127422;28;20531;-82
2022/10/17 01:09:30;;;;;;;15.65;2.75;;;13.60;99.90;;;;;;6126893;28;20420;-82
2022/10/17 01:12:41;;;;;;;16.55;3.03;;;13.60;99.90;;;;;;6126822;28;20442;-83
2022/10/17 01:15:54;;;;;;;7.88;2.83;;;13.60;99.90;;;;;;6126535;28;20048;-83
2022/10/17 01:19:07;;;;;;;12.90;3.28;;;13.60;99.90;;;;;;6126727;28;20051;-83
2022/10/17 01:22:15;;;;;;;17.67;3.47;;;13.50;99.90;;;;;;6127735;28;20051;-83
2022/10/17 01:25:29;;;;;;;19.13;3.13;;;13.50;99.90;;;;;;6130644;28;20048;-83
2022/10/17 01:28:56;;;;;;;20.92;3.55;;;13.50;99.90;;;;;;6129266;28;20044;-82
2022/10/17 01:32:03;;;;;;;7.57;3.05;;;13.40;99.90;;;;;;6130930;29;20054;-83
2022/10/17 01:35:11;;;;;;;10.70;2.70;;;13.50;99.90;;;;;;6129868;28;20066;-82
2022/10/17 01:38:17;;;;;;;;;;;13.50;99.90;;;;;;6129726;28;20287;-83
2022/10/17 01:41:31;;;;;;;11.18;2.70;;;13.50;99.90;;;;;;6129694;28;19923;-83
2022/10/17 01:44:39;;;;;;;6.43;2.28;;;13.50;99.90;;;;;;6129670;28;20044;-83
2022/10/17 01:47:42;;;;;;;;;;;13.40;99.90;;;;;;6130284;29;20051;-83
2022/10/17 01:50:48;;;;;;;10.88;3.00;;;13.40;99.90;;;;;;6129420;28;20234;-84
2022/10/17 01:53:54;;;;;;;7.15;2.28;;;13.30;99.90;;;;;;6127674;28;20054;-82
2022/10/17 01:56:58;;;;;;;9.23;2.58;;;13.20;99.90;;;;;;6126538;28;20055;-82
2022/10/17 02:00:02;;;;;;;8.05;2.53;;;13.10;99.90;;;;;;6127139;28;20048;-82
2022/10/17 02:03:09;;;;;;;6.82;2.28;;;13.10;99.90;;;;;;6127704;28;20055;-82
2022/10/17 02:06:11;;;;;;;11.15;2.85;;;13.10;99.90;;;;;;6127819;28;20051;-82
2022/10/17 02:09:21;;;;;;;15.88;2.63;;;13.10;99.90;;;;;;6128372;28;20055;-82
2022/10/17 02:12:36;;;;;;;14.57;2.10;;;13.10;99.90;;;;;;6128343;28;20060;-82
2022/10/17 02:15:50;;;;;;;12.45;2.40;;;13.00;99.90;;;;;;6127859;29;20055;-83
2022/10/17 02:19:09;;;;;;;17.52;3.35;;;13.10;99.90;;;;;;6125244;28;20054;-82
2022/10/17 02:22:19;;;;;;;12.27;3.90;;;13.10;99.90;;;;;;6126607;28;20044;-82
2022/10/17 02:25:30;;;;;;;12.38;2.50;;;13.10;99.90;;;;;;6128022;28;20448;-81
2022/10/17 02:28:40;;;;;;;16.25;3.33;;;13.10;99.90;;;;;;6126643;28;20051;-83
2022/10/17 02:31:48;;;;;;;8.07;2.60;;;13.10;99.90;;;;;;6128243;29;20052;-82
2022/10/17 02:34:55;;;;;;;10.90;2.83;;;13.00;99.90;;;;;;6128059;28;20505;-83
2022/10/17 02:37:57;;;;;;;7.53;2.15;;;13.10;99.90;;;;;;6126709;28;20055;-82
2022/10/17 02:41:00;;;;;;;7.35;3.08;;;13.00;99.90;;;;;;6127353;28;20047;-83
2022/10/17 02:44:04;;;;;;;14.73;2.67;;;13.00;99.90;;;;;;6127389;28;20524;-82
2022/10/17 02:47:12;;;;;;;20.15;2.50;;;13.00;99.90;;;;;;6127980;28;20043;-82
2022/10/17 02:50:15;;;;;;;19.83;3.33;;;13.00;99.90;;;;;;6126864;28;20051;-82
2022/10/17 02:53:25;;;;;;;9.48;2.08;;;13.00;99.90;;;;;;6134243;28;20052;-83
2022/10/17 02:56:30;;;;;;;8.70;2.80;;;12.90;99.90;;;;;;6153273;28;20472;-82
2022/10/17 02:59:34;;;;;;;9.00;2.50;;;12.90;99.90;;;;;;6149768;28;20051;-82
2022/10/17 03:02:41;;;;;;;7.68;2.67;;;12.80;99.90;;;;;;6148974;28;20043;-82
2022/10/17 03:05:44;;;;;;;15.02;3.22;;;12.80;99.90;;;;;;6149608;28;20055;-82
2022/10/17 03:08:46;;;;;;;5.78;2.53;;;12.80;99.90;;;;;;6149187;28;20050;-82
2022/10/17 03:11:48;;;;;;;14.65;4.30;;;12.80;99.90;;;;;;6149764;28;20055;-82
2022/10/17 03:14:49;;;;;;;11.35;3.20;;;12.80;99.90;;;;;;6149054;28;20047;-82
2022/10/17 03:17:51;;;;;;;8.63;3.47;;;12.80;99.90;;;;;;6148886;28;20532;-83
2022/10/17 03:20:54;;;;;;;8.75;4.72;;;12.90;99.90;;;;;;6149159;28;20058;-83
2022/10/17 03:23:56;;;;;;;9.10;3.35;;;12.90;99.90;;;;;;6150632;28;20051;-83
2022/10/17 03:26:57;;;;;;;14.18;4.25;;;13.00;99.90;;;;;;6150644;28;20058;-83
2022/10/17 03:29:59;;;;;;;16.88;6.03;;;13.00;99.90;;;;;;6150901;28;20054;-83
2022/10/17 03:33:01;;;;;;;18.95;3.88;;;13.10;99.90;;;;;;6150749;28;20054;-83
2022/10/17 03:36:07;;;;;;;16.92;4.68;;;13.10;99.90;;;;;;6151046;28;20055;-83
2022/10/17 03:39:08;;;;;;;16.92;4.68;;;13.20;99.90;;;;;;6151397;28;20047;-83
2022/10/17 03:42:10;;;;;;;17.25;3.45;;;13.30;99.90;;;;;;6150443;28;20047;-83
2022/10/17 03:45:12;;;;;;;5.75;3.50;;;13.30;99.90;;;;;;6150362;28;20055;-82
2022/10/17 03:48:13;;;;;;;10.00;3.60;;;13.30;99.90;;;;;;6149713;28;20052;-84
2022/10/17 03:51:16;;;;;;;16.33;3.90;;;13.20;99.90;;;;;;6151782;28;20055;-84
2022/10/17 03:54:18;;;;;;;6.07;2.03;;;13.10;99.90;;;;;;6151159;28;20421;-84
2022/10/17 03:57:20;;;;;;;8.80;2.40;;;13.00;99.90;;;;;;6151289;28;20055;-84
2022/10/17 04:00:22;;;;;;;4.68;1.75;;;13.00;99.90;;;;;;6151092;28;20070;-83
2022/10/17 04:03:23;;;;;;;24.00;4.65;;;12.90;99.90;;;;;;6151620;28;20063;-84
2022/10/17 04:06:26;;;;;;;11.45;2.30;;;12.90;99.90;;;;;;6151230;28;20047;-84
2022/10/17 04:09:28;;;;;;;6.38;1.98;;;12.90;99.90;;;;;;6151040;28;20408;-84
2022/10/17 04:12:30;;;;;;;5.88;1.70;;;12.80;99.90;;;;;;6151997;28;20523;-84
2022/10/17 04:15:31;;;;;;;9.27;2.35;;;12.70;99.90;;;;;;6151454;28;20051;-84
2022/10/17 04:18:33;;;;;;;12.93;2.17;;;12.70;99.90;;;;;;6152106;28;20047;-84
2022/10/17 04:21:36;;;;;;;19.20;1.95;;;12.70;99.90;;;;;;6151264;28;20058;-83
2022/10/17 04:24:38;;;;;;;14.10;1.83;;;12.60;99.90;;;;;;6152758;28;20054;-85
2022/10/17 04:27:40;;;;;;;7.95;2.13;;;12.60;99.90;;;;;;6152575;28;20051;-84
2022/10/17 04:30:42;;;;;;;11.30;1.95;;;12.60;99.90;;;;;;6152145;28;20054;-83
2022/10/17 04:33:43;;;;;;;9.88;2.33;;;12.60;99.90;;;;;;6152293;28;20051;-84
2022/10/17 04:36:46;;;;;;;10.98;3.33;;;12.60;99.90;;;;;;6148114;28;20113;-84
2022/10/17 04:39:48;;;;;;;20.08;3.20;;;12.60;99.90;;;;;;6148622;28;20055;-84
2022/10/17 04:42:51;;;;;;;6.07;2.78;;;12.60;99.90;;;;;;6148851;28;20058;-83
2022/10/17 04:45:53;;;;;;;25.90;9.90;;;12.60;99.90;;;;;;6149005;28;20051;-84
2022/10/17 04:48:54;;;;;;;14.18;2.08;;;12.50;99.90;;;;;;6149326;28;20047;-84
2022/10/17 04:51:57;;;;;;;12.20;2.42;;;12.60;99.90;;;;;;6150185;28;20056;-83
2022/10/17 04:54:59;;;;;;;17.75;4.30;;;12.50;99.90;;;;;;6148079;28;20054;-84
2022/10/17 04:58:01;;;;;;;17.52;3.42;;;12.50;99.90;;;;;;6149460;28;20043;-84
2022/10/17 05:01:05;;;;;;;10.05;2.17;;;12.50;99.90;;;;;;6152006;28;20047;-84
2022/10/17 05:04:07;;;;;;;9.27;2.78;;;12.50;99.90;;;;;;6152270;28;20051;-84
2022/10/17 05:07:10;;;;;;;9.60;3.22;;;12.40;99.90;;;;;;6152955;28;20154;-84
2022/10/17 05:10:11;;;;;;;5.70;2.65;;;12.40;99.90;;;;;;6152961;28;20059;-84
2022/10/17 05:13:13;;;;;;;15.93;3.75;;;12.40;99.90;;;;;;6152059;28;20051;-84
2022/10/17 05:16:15;;;;;;;9.57;2.15;;;12.30;99.90;;;;;;6152400;28;20055;-84
2022/10/17 05:19:17;;;;;;;13.95;3.67;;;12.30;99.90;;;;;;6152191;28;20063;-84
2022/10/17 05:22:20;;;;;;;20.50;2.92;;;12.30;99.90;;;;;;6152176;28;20070;-84
2022/10/17 05:25:23;;;;;;;11.70;2.95;;;12.30;99.90;;;;;;6152468;28;20054;-84
2022/10/17 05:28:24;;;;;;;18.40;4.60;;;12.20;99.90;;;;;;6153724;28;20136;-84
2022/10/17 05:31:27;;;;;;;18.02;4.25;;;12.10;99.90;;;;;;6153142;28;20062;-84
2022/10/17 05:34:28;;;;;;;16.27;4.22;;;12.10;99.90;;;;;;6152797;28;20043;-84
2022/10/17 05:37:31;;;;;;;11.85;3.33;;;12.10;99.90;;;;;;6153131;28;20054;-83
2022/10/17 05:40:33;;;;;;;24.08;4.53;;;12.00;99.90;;;;;;6153551;28;20547;-84
2022/10/17 05:43:35;;;;;;;9.48;2.72;;;12.00;99.90;;;;;;6154562;28;20416;-83
2022/10/17 05:46:37;;;;;;;9.57;2.63;;;12.10;99.90;;;;;;6154554;28;20058;-83
2022/10/17 05:49:38;;;;;;;9.82;2.13;;;12.10;99.90;;;;;;6154113;28;20051;-84
2022/10/17 05:52:41;;;;;;;8.07;2.58;;;12.10;99.90;;;;;;6154133;28;20051;-84
2022/10/17 05:55:43;;;;;;;8.32;3.13;;;12.10;99.90;;;;;;6154910;28;20051;-83
2022/10/17 05:58:45;;;;;;;6.47;3.38;;;12.20;99.90;;;;;;6153968;28;20047;-83
2022/10/17 06:01:46;;;;;;;12.35;2.92;;;12.20;99.90;;;;;;6154693;28;20479;-84
2022/10/17 06:04:49;;;;;;;8.45;2.53;;;12.20;99.90;;;;;;6156265;28;20058;-83
2022/10/17 06:07:52;;;;;;;19.48;3.53;;;12.30;99.90;;;;;;6155571;28;20059;-83
2022/10/17 06:10:54;;;;;;;10.23;2.47;;;12.40;99.90;;;;;;6156206;28;20051;-83
2022/10/17 06:13:55;;;;;;;11.65;2.53;;;12.50;99.90;;;;;;6155508;28;20047;-84
2022/10/17 06:16:58;;;;;;;12.00;2.90;;;12.50;99.90;;;;;;6153402;28;20054;-83
2022/10/17 06:20:00;;;;;;;6.07;2.50;;;12.50;99.90;;;;;;6155066;29;20066;-84
2022/10/17 06:23:03;;;;;;;6.18;2.60;;;12.60;99.90;;;;;;6152682;28;20051;-83
2022/10/17 06:26:06;;;;;;;10.80;3.47;;;12.70;99.90;;;;;;6160524;28;20059;-84
2022/10/17 06:29:08;;;;;;;23.45;3.22;;;12.80;99.90;;;;;;6156314;28;20043;-84
2022/10/17 06:32:10;;;;;;;8.50;3.53;;;12.90;99.90;;;;;;6157511;28;20051;-84
2022/10/17 06:35:11;;;;;;;12.32;2.78;;;13.10;99.90;;;;;;6156998;28;20058;-84
2022/10/17 06:38:14;;;;;;;11.93;3.83;;;13.20;99.90;;;;;;6155398;28;20044;-84
2022/10/17 06:41:18;;;;;;;5.80;2.60;;;13.30;99.90;;;;;;6155507;28;20054;-83
2022/10/17 06:44:21;;;;;;;9.75;3.20;;;13.50;99.90;;;;;;6154601;28;20453;-84
2022/10/17 06:47:22;;;;;;;9.02;3.15;;;13.70;99.90;;;;;;6153965;28;20130;-84
2022/10/17 06:50:24;;;;;;;6.85;2.88;;;13.90;99.90;;;;;;6157364;28;20055;-84
2022/10/17 06:53:29;;;;;;;14.75;2.47;;;14.20;99.90;;;;;;6156542;28;20047;-82
2022/10/17 06:56:30;;;;;;;16.60;3.20;;;14.40;99.90;;;;;;6151722;28;20043;-82
2022/10/17 06:59:32;;;;;;;12.43;2.85;;;14.80;99.90;;;;;;6152253;28;20043;-83
2022/10/17 07:03:13;;;;;;;4.57;2.70;;;15.00;99.90;;;;;;6174451;22;20783;-84
2022/10/17 07:06:27;;;;;;;7.65;2.60;;;15.30;99.90;;;;;;6119681;28;20055;-84
2022/10/17 07:09:45;;;;;;;6.63;2.20;;;15.70;99.90;;;;;;6120052;28;20048;-84
2022/10/17 07:12:58;;;;;;;13.27;2.60;;;15.80;99.90;;;;;;6134069;28;20047;-84
2022/10/17 07:26:09;;;;;;;4.85;1.52;;;16.70;99.90;;;;;;6145641;28;20052;-85
2022/10/17 07:29:12;;;;;;;10.35;2.15;;;16.90;99.90;;;;;;6129814;28;20058;-85
2022/10/17 07:46:07;;;;;;;5.05;1.70;;;17.90;99.90;;;;;;6204051;28;20086;-83
2022/10/17 07:49:20;;;;;;;10.82;2.55;;;18.30;99.90;;;;;;6176431;28;20090;-83
2022/10/17 07:56:41;;;;;;;11.20;1.90;;;19.00;99.90;;;;;;6038333;29;20117;-83
2022/10/17 07:59:42;;;;;;;7.28;2.38;;;19.50;99.90;;;;;;6083088;29;20428;-82
2022/10/17 08:02:45;;;;;;;13.90;1.98;;;20.00;99.90;;;;;;6127874;29;20401;-83
2022/10/17 08:05:47;;;;;;;7.13;1.55;;;20.30;99.90;;;;;;6126659;29;20052;-84
2022/10/17 08:08:49;;;;;;;9.70;1.65;;;20.60;99.90;;;;;;6126622;29;20067;-83
2022/10/17 08:11:51;;;;;;;2.15;1.10;;;20.90;99.90;;;;;;6127724;29;20056;-84
2022/10/17 08:15:01;;;;;;;6.95;1.75;;;21.30;99.90;;;;;;6270131;22;20055;-84
2022/10/17 08:18:04;;;;;;;4.00;1.23;;;21.70;99.90;;;;;;6127502;28;20051;-84
2022/10/17 08:21:07;;;;;;;6.20;1.50;;;22.20;99.90;;;;;;6146930;28;20044;-83
2022/10/17 08:24:08;;;;;;;4.07;1.48;;;22.60;99.90;;;;;;6105705;28;20079;-82
2022/10/17 08:27:12;;;;;;;5.18;1.38;;;23.10;99.90;;;;;;6104890;28;20048;-85
2022/10/17 08:30:14;;;;;;;7.88;1.42;;;23.50;99.10;;;;;;6104198;28;20131;-83
2022/10/17 08:33:17;;;;;;;6.45;1.27;;;23.70;98.40;;;;;;6103411;28;20521;-83
2022/10/17 08:36:20;;;;;;;5.75;1.50;;;24.00;98.00;;;;;;6104156;28;20588;-84
2022/10/17 08:39:22;;;;;;;7.80;1.60;;;24.30;97.20;;;;;;6103987;28;20445;-84
2022/10/17 08:49:23;;;;;;;8.52;1.48;;;25.80;94.10;;;;;;6121418;28;20053;-83
2022/10/17 08:52:41;;;;;;;4.63;1.50;;;26.10;93.20;;;;;;6205935;28;20084;-83
2022/10/17 08:55:52;;;;;;;6.70;1.90;;;26.80;92.10;;;;;;6252218;28;20045;-82
2022/10/17 08:58:59;;;;;;;7.70;1.63;;;27.10;91.30;;;;;;6256550;28;20388;-83
2022/10/17 09:15:11;;;;;;;7.95;1.15;;;26.90;89.60;;;;;;6172227;22;20048;-83
2022/10/17 09:18:35;;;;;;;6.72;3.30;;;26.90;89.30;;;;;;6162727;28;20514;-83
2022/10/17 09:26:44;;;;;;;;;;;;;;;;;;;;;
2022/10/17 09:53:14;;;;;;;10.45;1.33;;;26.80;83.40;;;;;;6082314;28;20107;-82
2022/10/17 09:56:58;;;;;;;2.45;1.05;;;26.70;83.20;;;;;;6094131;28;20052;-82
2022/10/17 10:00:32;;;;;;;2.85;1.30;;;26.80;82.60;;;;;;6075475;28;20060;-82
2022/10/17 10:07:50;;;;;;;5.72;1.30;;;26.80;82.20;;;;;;6096873;28;20130;-82
2022/10/17 10:11:08;;;;;;;2.63;1.10;;;27.20;82.70;;;;;;6106177;28;20134;-82
2022/10/17 10:14:32;;;;;;;;;;;27.70;80.40;;;;;;6094013;28;20088;-82
2022/10/17 10:18:18;;;;;;;4.07;0.90;;;28.20;80.20;;;;;;6095145;28;19934;-82
2022/10/17 10:25:25;;;;;;;2.17;1.10;;;28.80;76.90;;;;;;6212208;28;20045;-83
2022/10/17 10:28:44;;;;;;;6.15;1.40;;;28.90;74.80;;;;;;6215137;28;20069;-82
2022/10/17 10:31:52;;;;;;;6.40;1.42;;;28.90;74.80;;;;;;6225200;28;20573;-83
2022/10/17 10:35:17;;;;;;;10.88;1.00;;;29.40;74.10;;;;;;6216415;28;20499;-83
2022/10/17 10:38:26;;;;;;;1.75;1.10;;;29.50;73.00;;;;;;6224845;28;20049;-82
2022/10/17 10:41:57;;;;;;;7.40;0.88;;;29.80;71.60;;;;;;6238832;28;20083;-84
2022/10/17 10:45:15;;;;;;;3.75;0.85;;;29.70;70.00;;;;;;6244769;28;20049;-83
2022/10/17 10:48:35;;;;;;;1.55;0.70;;;29.70;69.80;;;;;;6228144;28;20069;-83
2022/10/17 10:51:49;;;;;;;7.35;0.85;;;29.70;69.50;;;;;;6188728;28;20049;-83
2022/10/17 10:54:57;;;;;;;2.83;1.27;;;30.00;69.10;;;;;;6174262;28;20541;-83
2022/10/17 10:58:03;;;;;;;2.97;0.95;;;30.20;68.60;;;;;;6131918;28;20194;-83
2022/10/17 11:01:17;;;;;;;5.18;1.08;;;30.40;68.20;;;;;;6133634;28;20051;-83
2022/10/17 11:04:38;;;;;;;6.60;0.88;;;30.70;67.50;;;;;;6131987;28;20060;-84
2022/10/17 11:07:51;;;;;;;5.90;0.73;;;30.90;67.00;;;;;;6130886;29;20052;-83
2022/10/17 11:11:25;;;;;;;9.27;2.78;;;31.20;66.50;;;;;;6131282;28;20058;-82
2022/10/17 11:14:37;;;;;;;7.95;0.70;;;31.50;65.50;;;;;;6127304;28;20437;-83
2022/10/17 11:25:40;;;;;;;2.65;0.52;;;32.20;63.00;;;;;;6215656;28;20050;-82
2022/10/17 11:29:19;;;;;;;5.00;1.30;;;32.30;62.10;;;;;;6225317;28;20054;-83
2022/10/17 11:38:57;;;;;;;4.75;0.73;;;32.50;59.90;;;;;;6150611;28;20194;-83
2022/10/17 11:42:05;;;;;;;4.30;0.82;;;32.50;58.90;;;;;;6250198;28;20107;-86
2022/10/17 11:45:24;;;;;;;5.10;0.70;;;32.50;58.70;;;;;;6225294;28;20081;-83
2022/10/17 11:48:38;;;;;;;4.55;0.70;;;32.60;58.70;;;;;;6207649;28;20044;-83
2022/10/17 11:51:45;;;;;;;5.80;0.57;;;32.50;57.10;;;;;;6184276;28;20061;-84
2022/10/17 11:54:53;;;;;;;0.75;0.50;;;32.40;57.30;;;;;;6224824;28;20419;-83
2022/10/17 11:58:09;;;;;;;3.72;0.70;;;32.40;57.70;;;;;;6225061;28;20052;-82
2022/10/17 12:01:20;;;;;;;8.40;0.77;;;32.50;57.10;;;;;;6170148;28;20059;-83
2022/10/17 12:04:34;;;;;;;1.45;0.57;;;32.60;56.80;;;;;;6167470;28;20110;-83
2022/10/17 12:07:45;;;;;;;5.15;0.90;;;32.60;56.20;;;;;;6226784;28;20061;-83
2022/10/17 12:10:54;;;;;;;7.75;1.00;;;32.70;57.00;;;;;;6226305;28;20038;-83
2022/10/17 12:13:57;;;;;;;3.63;0.95;;;32.90;56.90;;;;;;6226522;28;20491;-82
2022/10/17 12:17:00;;;;;;;4.63;0.65;;;33.00;56.90;;;;;;6226816;28;20057;-82
2022/10/17 12:20:30;;;;;;;7.38;0.93;;;33.20;56.70;;;;;;6213225;28;20056;-84
2022/10/17 12:23:35;;;;;;;2.60;0.80;;;33.20;56.60;;;;;;6077543;29;20521;-83
2022/10/17 12:26:36;;;;;;;3.58;0.80;;;33.50;56.10;;;;;;6080823;28;20064;-83
2022/10/17 12:29:40;;;;;;;5.90;0.90;;;33.70;55.60;;;;;;6081358;28;20049;-83
2022/10/17 12:32:58;;;;;;;3.75;0.95;;;33.90;55.10;;;;;;6080728;28;20059;-83
2022/10/17 12:36:46;;;;;;;4.22;1.08;;;34.00;54.90;;;;;;6080287;28;20063;-85
2022/10/17 12:39:49;;;;;;;1.67;0.70;;;34.00;55.00;;;;;;6093619;28;20773;-83
2022/10/17 12:42:50;;;;;;;1.58;0.47;;;34.20;53.30;;;;;;6081252;28;20055;-83
2022/10/17 12:45:54;;;;;;;9.73;0.70;;;34.10;53.60;;;;;;6081374;28;20044;-83
2022/10/17 12:49:02;;;;;;;5.60;0.70;;;34.10;53.20;;;;;;6092674;28;20045;-82
2022/10/17 12:52:47;;;;;;;9.85;0.80;;;33.90;52.30;;;;;;6188454;28;20054;-83
2022/10/17 12:55:50;;;;;;;6.22;0.82;;;33.90;52.60;;;;;;6139441;28;20055;-82
2022/10/17 12:58:53;;;;;;;4.15;0.80;;;33.80;51.70;;;;;;6126826;29;20501;-83
2022/10/17 13:02:01;;;;;;;1.60;0.60;;;33.70;52.10;;;;;;6119355;29;20632;-83
2022/10/17 13:05:08;;;;;;;2.35;1.00;;;33.70;51.10;;;;;;6103308;28;20098;-84
2022/10/17 13:08:21;;;;;;;5.90;0.80;;;33.30;51.20;;;;;;6103306;28;20063;-83
2022/10/17 13:11:25;;;;;;;2.42;0.80;;;33.20;52.00;;;;;;6103991;29;20057;-83
2022/10/17 13:14:28;;;;;;;1.17;0.50;;;33.10;51.50;;;;;;6132664;22;20056;-83
2022/10/17 13:17:31;;;;;;;1.77;0.90;;;33.20;51.40;;;;;;6122170;28;20052;-84
2022/10/17 13:20:33;;;;;;;1.30;0.50;;;33.20;51.00;;;;;;6168114;28;20051;-84
2022/10/17 13:23:37;;;;;;;2.28;0.68;;;33.30;50.70;;;;;;6153384;28;20501;-84
2022/10/17 13:26:45;;;;;;;5.25;0.98;;;33.20;50.50;;;;;;6125986;28;20066;-84
2022/10/17 13:29:47;;;;;;;1.95;0.60;;;33.20;50.70;;;;;;6125997;28;20051;-84
2022/10/17 13:32:50;;;;;;;1.30;0.60;;;33.00;50.90;;;;;;6126106;28;20504;-85
2022/10/17 13:35:52;;;;;;;5.13;0.80;;;33.00;50.10;;;;;;6105773;28;20425;-84
2022/10/17 13:38:54;;;;;;;4.22;0.70;;;32.80;50.10;;;;;;6101962;28;20048;-83
2022/10/17 13:41:57;;;;;;;3.60;0.90;;;32.70;50.20;;;;;;6101969;28;20048;-84
2022/10/17 13:44:59;;;;;;;1.00;0.60;;;32.70;50.30;;;;;;6102251;28;20123;-84
2022/10/17 13:48:04;;;;;;;4.85;1.00;;;32.60;50.20;;;;;;6102746;28;20059;-84
2022/10/17 13:51:07;;;;;;;3.63;0.77;;;32.60;50.60;;;;;;6208668;28;20038;-83
2022/10/17 13:54:18;;;;;;;1.23;0.60;;;32.70;51.20;;;;;;6250100;28;20057;-85
2022/10/17 13:57:23;;;;;;;1.92;0.40;;;32.80;50.80;;;;;;6249537;28;20046;-85
2022/10/17 14:00:25;;;;;;;6.60;0.80;;;32.80;50.70;;;;;;6250215;28;20048;-84
2022/10/17 14:03:28;;;;;;;2.08;0.98;;;32.70;50.40;;;;;;6204502;28;20062;-84
2022/10/17 14:06:30;;;;;;;9.05;0.88;;;32.60;50.90;;;;;;6128704;28;20058;-85
2022/10/17 14:09:32;;;;;;;5.13;0.90;;;32.70;51.20;;;;;;6125249;28;20055;-84
2022/10/17 14:12:34;;;;;;;2.58;0.95;;;32.80;51.20;;;;;;6125784;28;20051;-84
2022/10/17 14:15:37;;;;;;;1.45;0.63;;;32.80;50.80;;;;;;6126554;29;20054;-84
2022/10/17 14:18:43;;;;;;;4.95;0.95;;;32.80;51.10;;;;;;6124872;28;20528;-82
2022/10/17 14:21:48;;;;;;;2.38;0.68;;;32.90;50.70;;;;;;6170690;28;20055;-82
2022/10/17 14:24:50;;;;;;;9.05;0.82;;;33.10;50.60;;;;;;6128600;28;20050;-83
2022/10/17 14:27:56;;;;;;;4.90;0.70;;;33.40;50.50;;;;;;6126274;29;20054;-83
2022/10/17 14:31:12;;;;;;;0.77;0.38;;;33.60;50.00;;;;;;6125330;28;20051;-83
2022/10/17 14:34:22;;;;;;;3.80;0.90;;;33.60;50.10;;;;;;6124877;28;20617;-83
2022/10/17 14:37:34;;;;;;;3.28;0.90;;;33.60;50.10;;;;;;6125288;28;20044;-84
2022/10/17 14:40:36;;;;;;;5.57;0.55;;;33.70;50.70;;;;;;6126683;28;20048;-86
2022/10/17 14:43:37;;;;;;;1.98;0.70;;;33.80;50.00;;;;;;6133828;28;20056;-83
2022/10/17 14:46:45;;;;;;;3.65;0.90;;;33.80;50.00;;;;;;6127169;28;20058;-84
2022/10/17 14:49:51;;;;;;;5.97;0.70;;;33.80;50.10;;;;;;6165425;28;20407;-84
2022/10/17 14:53:02;;;;;;;5.47;0.90;;;33.90;50.20;;;;;;6215761;28;20041;-85
2022/10/17 14:56:20;;;;;;;6.88;1.13;;;33.70;49.80;;;;;;6248962;28;20470;-86
2022/10/17 14:59:23;;;;;;;2.00;0.60;;;33.60;50.10;;;;;;6249485;28;20049;-85
2022/10/17 15:02:26;;;;;;;4.60;0.98;;;33.40;50.60;;;;;;6248408;28;20049;-85
2022/10/17 15:05:32;;;;;;;3.10;0.90;;;33.20;51.30;;;;;;6247976;28;20046;-84
2022/10/17 15:08:34;;;;;;;9.40;0.93;;;33.00;51.80;;;;;;6248556;28;20423;-84
2022/10/17 15:11:36;;;;;;;4.38;0.85;;;32.90;52.10;;;;;;6249432;28;20563;-86
2022/10/17 15:14:37;;;;;;;2.17;0.85;;;32.70;52.00;;;;;;6249529;28;20060;-85
2022/10/17 15:17:40;;;;;;;5.53;2.05;;;32.50;51.90;;;;;;6250385;28;20060;-85
2022/10/17 15:20:43;;;;;;;17.73;11.88;;;32.40;52.40;;;;;;6181818;28;20052;-85
2022/10/17 15:23:45;;;;;;;4.80;0.77;;;32.10;52.50;;;;;;6251674;28;20041;-85
2022/10/17 15:26:48;;;;;;;5.30;1.95;;;31.90;53.00;;;;;;6251375;28;20045;-85
2022/10/17 15:29:51;;;;;;;4.55;2.47;;;31.60;53.80;;;;;;6251255;28;20053;-85
2022/10/17 15:32:54;;;;;;;4.03;0.80;;;31.30;55.00;;;;;;6250226;28;20175;-85
2022/10/17 15:35:57;;;;;;;3.10;0.90;;;30.80;55.70;;;;;;6251697;28;20414;-85
2022/10/17 15:39:00;;;;;;;2.35;1.27;;;30.40;57.40;;;;;;6249386;28;20049;-84
2022/10/17 15:42:03;;;;;;;6.22;0.90;;;29.90;57.80;;;;;;6236615;28;20143;-84
2022/10/17 15:45:06;;;;;;;3.22;1.02;;;29.40;59.00;;;;;;6262224;28;20053;-84
2022/10/17 15:48:14;;;;;;;2.65;1.10;;;28.80;60.20;;;;;;6245904;28;20052;-86
2022/10/17 15:51:18;;;;;;;2.47;0.98;;;28.40;61.50;;;;;;6195609;28;20045;-84
2022/10/17 15:54:19;;;;;;;6.55;1.25;;;27.90;62.80;;;;;;6167182;28;20060;-85
2022/10/17 15:57:23;;;;;;;4.10;1.23;;;27.50;63.90;;;;;;6131827;29;20059;-85
2022/10/17 16:00:25;;;;;;;11.15;1.85;;;27.10;65.30;;;;;;6130922;28;20055;-84
2022/10/17 16:03:29;;;;;;;6.13;1.20;;;26.70;66.40;;;;;;6130332;28;20047;-84
2022/10/17 16:06:32;;;;;;;3.15;0.95;;;26.40;67.60;;;;;;6128122;28;20099;-84
2022/10/17 16:09:36;;;;;;;6.53;1.42;;;26.00;68.80;;;;;;6129127;28;20064;-84
2022/10/17 16:12:40;;;;;;;12.00;1.70;;;25.70;69.70;;;;;;6127452;28;20528;-82
2022/10/17 16:15:41;;;;;;;10.57;2.10;;;25.50;70.80;;;;;;6126422;28;20052;-83
2022/10/17 16:18:43;;;;;;;14.90;1.92;;;25.10;71.90;;;;;;6129703;28;20051;-83
2022/10/17 16:21:46;;;;;;;11.05;1.65;;;24.80;73.00;;;;;;6212869;28;20045;-84
2022/10/17 16:24:48;;;;;;;5.80;1.42;;;24.60;74.20;;;;;;6253798;28;20060;-83
2022/10/17 16:27:51;;;;;;;7.88;1.80;;;24.30;75.10;;;;;;6252488;28;20054;-85
2022/10/17 16:30:53;;;;;;;5.18;1.63;;;24.00;76.20;;;;;;6254179;28;20045;-84
2022/10/17 16:33:57;;;;;;;5.35;1.55;;;23.80;77.00;;;;;;6255360;28;20049;-84
2022/10/17 16:37:00;;;;;;;11.23;1.35;;;23.50;78.30;;;;;;6253319;28;20052;-84
2022/10/17 16:40:03;;;;;;;10.77;3.03;;;23.30;79.30;;;;;;6252657;28;20045;-83
2022/10/17 16:43:05;;;;;;;11.02;2.88;;;23.00;80.10;;;;;;6254253;28;20041;-84
2022/10/17 16:46:06;;;;;;;15.05;5.10;;;22.80;81.10;;;;;;6254047;28;20518;-84
2022/10/17 16:49:11;;;;;;;8.18;2.47;;;22.60;82.20;;;;;;6224750;28;20387;-85
2022/10/17 16:52:14;;;;;;;6.07;2.00;;;22.40;83.50;;;;;;6213245;28;20045;-83
2022/10/17 16:55:17;;;;;;;7.10;2.30;;;22.10;84.90;;;;;;6258656;28;20041;-84
2022/10/17 16:58:19;;;;;;;8.88;1.83;;;21.90;86.10;;;;;;6258838;28;20046;-84
2022/10/17 17:01:23;;;;;;;7.70;2.15;;;21.70;87.20;;;;;;6259584;28;20041;-84
2022/10/17 17:04:25;;;;;;;6.32;2.03;;;21.60;88.20;;;;;;6258450;28;20434;-83
2022/10/17 17:07:28;;;;;;;7.45;2.05;;;21.40;89.00;;;;;;6163968;28;20425;-83
2022/10/17 17:10:30;;;;;;;5.43;3.08;;;21.20;90.00;;;;;;6132379;28;20056;-84
2022/10/17 17:13:32;;;;;;;10.40;2.97;;;21.00;90.40;;;;;;6133999;28;20055;-83
2022/10/17 17:16:34;;;;;;;10.95;2.90;;;20.80;91.00;;;;;;6135869;28;20056;-83
2022/10/17 17:19:36;;;;;;;14.10;1.85;;;20.70;91.50;;;;;;6175430;28;20388;-84
2022/10/17 17:22:39;;;;;;;5.53;2.22;;;20.50;91.90;;;;;;6221592;28;20045;-84
2022/10/17 17:25:41;;;;;;;4.68;1.80;;;20.40;92.50;;;;;;6265403;28;20534;-84
2022/10/17 17:28:43;;;;;;;8.32;1.98;;;20.20;93.00;;;;;;6272366;28;20045;-83
2022/10/17 17:31:45;;;;;;;2.50;1.52;;;20.10;93.50;;;;;;6257483;28;20049;-82
2022/10/17 17:34:46;;;;;;;7.55;2.10;;;19.90;94.00;;;;;;6257050;28;20045;-82
2022/10/17 17:37:49;;;;;;;8.50;2.25;;;19.80;94.60;;;;;;6257258;28;20557;-83
2022/10/17 17:40:52;;;;;;;4.05;1.60;;;19.70;95.10;;;;;;6256883;28;20041;-83
2022/10/17 17:43:54;;;;;;;6.63;1.75;;;19.70;95.60;;;;;;6255681;28;20060;-83
2022/10/17 17:46:56;;;;;;;8.63;2.13;;;19.50;96.00;;;;;;6259719;28;20072;-87
2022/10/17 17:49:58;;;;;;;15.50;5.13;;;19.50;96.60;;;;;;6244540;28;20042;-83
2022/10/17 17:53:01;;;;;;;8.32;2.70;;;19.40;97.00;;;;;;6140896;28;20047;-83
2022/10/17 17:56:04;;;;;;;12.70;2.67;;;19.40;97.40;;;;;;6141405;28;20056;-83